createdAt,value
2023-04-30T00:01:49.932Z,7.20
2023-04-30T00:04:17.801Z,8.07
2023-04-30T00:06:45.797Z,7.50
2023-04-30T00:09:13.851Z,7.60
2023-04-30T00:11:41.732Z,7.87
2023-04-30T00:14:09.947Z,7.80
2023-04-30T00:16:39.163Z,7.47
2023-04-30T00:19:07.107Z,7.87
2023-04-30T00:21:35.101Z,7.83
2023-04-30T00:24:03.823Z,8.20
2023-04-30T00:26:31.666Z,8.27
2023-04-30T00:28:59.564Z,7.47
2023-04-30T00:31:27.455Z,8.10
2023-04-30T00:33:56.769Z,8.00
2023-04-30T00:36:24.701Z,9.00
2023-04-30T00:38:52.633Z,8.60
2023-04-30T00:41:22.008Z,8.23
2023-04-30T00:43:49.951Z,8.53
2023-04-30T00:46:18.074Z,8.43
2023-04-30T00:48:46.261Z,8.60
2023-04-30T00:51:15.686Z,8.37
2023-04-30T00:53:44.723Z,8.40
2023-04-30T00:56:16.236Z,8.77
2023-04-30T00:58:44.211Z,9.20
2023-04-30T01:01:12.317Z,8.50
2023-04-30T01:03:41.483Z,8.97
2023-04-30T01:06:09.736Z,8.17
2023-04-30T01:08:39.100Z,8.70
2023-04-30T01:11:17.235Z,9.70
2023-04-30T01:13:54.648Z,8.60
2023-04-30T01:16:26.540Z,8.90
2023-04-30T01:19:00.496Z,8.87
2023-04-30T01:21:32.527Z,8.70
2023-04-30T01:24:19.556Z,9.17
2023-04-30T01:27:06.119Z,8.90
2023-04-30T01:29:37.039Z,9.07
2023-04-30T01:32:04.934Z,8.53
2023-04-30T01:34:32.880Z,9.50
2023-04-30T01:37:14.715Z,9.53
2023-04-30T01:39:58.249Z,9.33
2023-04-30T01:42:35.482Z,9.13
2023-04-30T01:45:19.720Z,9.10
2023-04-30T01:47:53.708Z,8.77
2023-04-30T01:50:29.779Z,9.63
2023-04-30T01:53:01.900Z,9.77
2023-04-30T01:55:36.009Z,9.90
2023-04-30T01:58:06.728Z,10.17
2023-04-30T02:00:36.024Z,9.03
2023-04-30T02:03:04.041Z,9.83
2023-04-30T02:05:32.161Z,9.87
2023-04-30T02:08:01.073Z,10.30
2023-04-30T02:10:30.559Z,9.77
2023-04-30T02:12:58.611Z,9.50
2023-04-30T02:15:27.408Z,9.73
2023-04-30T02:17:56.730Z,10.43
2023-04-30T02:20:24.672Z,10.47
2023-04-30T02:22:52.701Z,9.73
2023-04-30T02:25:20.705Z,10.13
2023-04-30T02:27:50.486Z,10.40
2023-04-30T02:30:19.766Z,10.37
2023-04-30T02:32:49.001Z,10.03
2023-04-30T02:35:18.349Z,9.80
2023-04-30T02:37:46.262Z,10.07
2023-04-30T02:40:14.396Z,10.33
2023-04-30T02:42:42.285Z,10.33
2023-04-30T02:45:10.704Z,11.03
2023-04-30T02:47:38.649Z,10.13
2023-04-30T02:50:07.735Z,11.67
2023-04-30T02:52:36.963Z,10.63
2023-04-30T02:55:05.410Z,10.57
2023-04-30T02:57:33.702Z,10.17
2023-04-30T03:00:01.618Z,10.23
2023-04-30T03:02:29.909Z,10.70
2023-04-30T03:04:57.904Z,12.87
2023-04-30T03:07:25.791Z,11.40
2023-04-30T03:09:55.461Z,12.10
2023-04-30T03:12:23.508Z,12.13
2023-04-30T03:14:52.224Z,11.57
2023-04-30T03:17:20.148Z,11.00
2023-04-30T03:19:48.019Z,11.87
2023-04-30T03:22:15.900Z,11.83
2023-04-30T03:24:43.782Z,13.10
2023-04-30T03:27:14.218Z,11.93
2023-04-30T03:29:42.118Z,11.83
2023-04-30T03:32:10.142Z,11.47
2023-04-30T03:34:39.254Z,10.67
2023-04-30T03:37:07.124Z,12.60
2023-04-30T03:39:34.954Z,11.93
2023-04-30T03:42:03.702Z,11.40
2023-04-30T03:44:33.051Z,11.30
2023-04-30T03:47:00.929Z,10.77
2023-04-30T03:49:28.769Z,11.93
2023-04-30T03:51:56.673Z,11.40
2023-04-30T03:54:24.583Z,11.60
2023-04-30T03:56:52.536Z,11.30
2023-04-30T03:59:20.795Z,11.17
2023-04-30T04:01:50.251Z,11.60
2023-04-30T04:04:18.527Z,11.80
2023-04-30T04:06:46.462Z,11.87
2023-04-30T04:09:14.363Z,11.53
2023-04-30T04:11:43.646Z,10.80
2023-04-30T04:14:11.558Z,11.30
2023-04-30T04:16:39.573Z,11.53
2023-04-30T04:19:09.018Z,11.43
2023-04-30T04:21:37.479Z,10.80
2023-04-30T04:24:11.252Z,11.10
2023-04-30T04:26:39.389Z,11.43
2023-04-30T04:29:09.492Z,11.17
2023-04-30T04:31:38.511Z,11.03
2023-04-30T04:34:06.778Z,11.00
2023-04-30T04:36:36.044Z,10.33
2023-04-30T04:39:04.022Z,11.07
2023-04-30T04:41:33.184Z,11.37
2023-04-30T04:44:01.715Z,12.00
2023-04-30T04:46:31.613Z,11.33
2023-04-30T04:48:59.942Z,10.37
2023-04-30T04:51:28.082Z,11.10
2023-04-30T04:53:57.517Z,10.77
2023-04-30T04:56:25.434Z,12.83
2023-04-30T04:58:53.398Z,11.73
2023-04-30T05:01:21.358Z,10.63
2023-04-30T05:03:49.907Z,12.50
2023-04-30T05:06:20.793Z,12.57
2023-04-30T05:08:49.650Z,12.23
2023-04-30T05:11:18.849Z,10.70
2023-04-30T05:13:47.454Z,11.37
2023-04-30T05:16:16.337Z,12.03
2023-04-30T05:18:44.320Z,11.57
2023-04-30T05:21:12.227Z,11.33
2023-04-30T05:23:40.136Z,12.10
2023-04-30T05:26:08.010Z,11.00
2023-04-30T05:28:37.238Z,10.90
2023-04-30T05:31:05.263Z,11.47
2023-04-30T05:33:33.692Z,11.57
2023-04-30T05:36:01.616Z,10.90
2023-04-30T05:38:29.531Z,11.57
2023-04-30T05:40:57.360Z,11.17
2023-04-30T05:43:25.220Z,11.37
2023-04-30T05:45:54.546Z,11.30
2023-04-30T05:48:22.540Z,10.10
2023-04-30T05:50:50.441Z,11.43
2023-04-30T05:53:18.312Z,10.03
2023-04-30T05:55:46.499Z,10.20
2023-04-30T05:58:14.364Z,10.57
2023-04-30T06:00:42.257Z,11.33
2023-04-30T06:03:11.487Z,10.07
2023-04-30T06:05:41.479Z,10.87
2023-04-30T06:08:09.808Z,10.37
2023-04-30T06:10:37.974Z,10.17
2023-04-30T06:13:06.022Z,11.03
2023-04-30T06:15:34.028Z,10.27
2023-04-30T06:18:01.890Z,10.87
2023-04-30T06:20:31.168Z,10.90
2023-04-30T06:23:00.011Z,11.20
2023-04-30T06:25:27.896Z,10.93
2023-04-30T06:27:55.828Z,10.80
2023-04-30T06:30:23.865Z,11.03
2023-04-30T06:32:51.905Z,10.70
2023-04-30T06:35:19.892Z,11.20
2023-04-30T06:37:49.168Z,11.97
2023-04-30T06:40:17.166Z,11.83
2023-04-30T06:42:46.962Z,10.83
2023-04-30T06:45:15.950Z,10.83
2023-04-30T06:47:46.035Z,11.00
2023-04-30T06:50:15.642Z,10.13
2023-04-30T06:52:43.856Z,11.50
2023-04-30T06:55:13.131Z,11.40
2023-04-30T06:57:41.068Z,10.87
2023-04-30T07:00:09.846Z,11.17
2023-04-30T07:02:37.970Z,11.03
2023-04-30T07:05:06.747Z,11.20
2023-04-30T07:07:34.804Z,11.47
2023-04-30T07:10:02.747Z,10.33
2023-04-30T07:12:32.044Z,11.90
2023-04-30T07:14:59.995Z,11.53
2023-04-30T07:17:27.985Z,11.83
2023-04-30T07:19:56.084Z,11.50
2023-04-30T07:22:24.287Z,11.33
2023-04-30T07:24:52.149Z,10.63
2023-04-30T07:27:20.088Z,11.00
2023-04-30T07:29:49.456Z,10.73
2023-04-30T07:32:17.394Z,10.70
2023-04-30T07:34:45.246Z,11.40
2023-04-30T07:37:13.453Z,10.27
2023-04-30T07:39:41.442Z,11.03
2023-04-30T07:42:09.568Z,10.60
2023-04-30T07:44:37.473Z,10.43
2023-04-30T07:47:06.709Z,10.20
2023-04-30T07:49:34.624Z,10.73
2023-04-30T07:52:02.580Z,10.40
2023-04-30T07:54:31.007Z,10.63
2023-04-30T07:56:58.906Z,10.40
2023-04-30T07:59:26.761Z,10.27
2023-04-30T08:01:54.837Z,10.53
2023-04-30T08:04:24.169Z,10.00
2023-04-30T08:06:52.199Z,9.30
2023-04-30T08:09:20.083Z,9.10
2023-04-30T08:11:47.969Z,9.60
2023-04-30T08:14:15.882Z,9.37
2023-04-30T08:16:43.754Z,9.20
2023-04-30T08:19:11.804Z,9.80
2023-04-30T08:21:41.848Z,9.60
2023-04-30T08:24:09.752Z,9.27
2023-04-30T08:26:37.624Z,9.67
2023-04-30T08:29:05.602Z,8.87
2023-04-30T08:31:33.649Z,8.80
2023-04-30T08:34:01.571Z,8.30
2023-04-30T08:36:29.446Z,7.97
2023-04-30T08:38:58.726Z,8.63
2023-04-30T08:41:28.614Z,7.97
2023-04-30T08:44:00.467Z,8.17
2023-04-30T08:46:30.863Z,7.67
2023-04-30T08:48:59.205Z,8.07
2023-04-30T08:51:28.121Z,7.20
2023-04-30T08:53:57.884Z,7.17
2023-04-30T08:56:26.073Z,7.20
2023-04-30T08:58:54.014Z,7.03
2023-04-30T09:01:22.367Z,6.30
2023-04-30T09:03:50.448Z,7.03
2023-04-30T09:06:18.708Z,6.53
2023-04-30T09:08:48.018Z,7.03
2023-04-30T09:11:25.041Z,7.20
2023-04-30T09:13:54.014Z,6.47
2023-04-30T09:16:22.877Z,6.70
2023-04-30T09:18:51.567Z,7.03
2023-04-30T09:21:32.488Z,6.40
2023-04-30T09:24:01.874Z,6.37
2023-04-30T09:26:33.472Z,7.20
2023-04-30T09:29:07.368Z,6.57
2023-04-30T09:31:35.860Z,6.50
2023-04-30T09:34:04.161Z,6.20
2023-04-30T09:36:32.480Z,6.20
2023-04-30T09:39:10.839Z,5.10
2023-04-30T09:41:41.636Z,6.23
2023-04-30T09:44:09.543Z,5.40
2023-04-30T09:46:38.377Z,6.33
2023-04-30T09:49:07.496Z,6.70
2023-04-30T09:51:35.657Z,6.30
2023-04-30T09:54:04.713Z,5.13
2023-04-30T09:56:37.208Z,4.37
2023-04-30T09:59:10.420Z,4.47
2023-04-30T10:01:40.491Z,4.47
2023-04-30T10:04:09.257Z,5.63
2023-04-30T10:06:37.800Z,4.97
2023-04-30T10:09:07.681Z,4.30
2023-04-30T10:11:38.590Z,6.00
2023-04-30T10:14:11.655Z,4.50
2023-04-30T10:16:48.262Z,4.03
2023-04-30T10:19:19.972Z,5.50
2023-04-30T10:21:48.365Z,5.10
2023-04-30T10:24:19.405Z,5.60
2023-04-30T10:26:48.301Z,5.27
2023-04-30T10:29:18.785Z,4.90
2023-04-30T10:31:48.797Z,5.07
2023-04-30T10:34:23.676Z,4.87
2023-04-30T10:36:56.294Z,4.63
2023-04-30T10:39:27.581Z,4.80
2023-04-30T10:42:02.622Z,5.63
2023-04-30T10:44:34.172Z,4.27
2023-04-30T10:47:02.697Z,4.87
2023-04-30T10:49:30.979Z,4.47
2023-04-30T10:52:01.313Z,3.93
2023-04-30T10:54:30.628Z,4.40
2023-04-30T10:57:11.445Z,3.93
2023-04-30T10:59:45.040Z,3.83
2023-04-30T11:02:16.189Z,3.83
2023-04-30T11:05:13.263Z,4.23
2023-04-30T11:07:51.757Z,4.53
2023-04-30T11:10:23.680Z,4.80
2023-04-30T11:12:53.649Z,4.93
2023-04-30T11:15:26.581Z,5.03
2023-04-30T11:17:59.474Z,4.73
2023-04-30T11:20:28.694Z,4.30
2023-04-30T11:23:19.578Z,4.53
2023-04-30T11:25:50.044Z,4.43
2023-04-30T11:28:19.809Z,3.50
2023-04-30T11:30:54.055Z,3.60
2023-04-30T11:33:22.932Z,4.30
2023-04-30T11:35:53.006Z,4.27
2023-04-30T11:38:22.912Z,4.10
2023-04-30T11:40:51.977Z,4.77
2023-04-30T11:43:27.754Z,5.07
2023-04-30T11:46:08.328Z,5.00
2023-04-30T11:48:37.834Z,5.33
2023-04-30T11:51:07.486Z,4.87
2023-04-30T11:53:35.493Z,5.10
2023-04-30T11:56:07.104Z,5.03
2023-04-30T11:58:37.902Z,4.47
2023-04-30T12:01:09.461Z,4.67
2023-04-30T12:03:42.977Z,5.20
2023-04-30T12:06:12.681Z,4.73
2023-04-30T12:08:42.891Z,5.10
2023-04-30T12:11:21.727Z,4.10
2023-04-30T12:13:54.286Z,4.40
2023-04-30T12:16:24.792Z,4.30
2023-04-30T12:18:53.132Z,3.67
2023-04-30T12:21:23.878Z,3.53
2023-04-30T12:23:51.905Z,3.57
2023-04-30T12:26:19.819Z,3.47
2023-04-30T12:28:49.333Z,3.63
2023-04-30T12:31:18.922Z,3.87
2023-04-30T12:33:56.961Z,2.83
2023-04-30T12:36:32.571Z,3.60
2023-04-30T12:39:07.598Z,2.70
2023-04-30T12:41:38.301Z,2.50
2023-04-30T12:44:16.910Z,3.50
2023-04-30T12:46:46.426Z,8.60
2023-04-30T12:49:24.824Z,7.87
2023-04-30T12:51:52.955Z,3.90
2023-04-30T12:54:28.061Z,3.20
2023-04-30T12:57:03.712Z,3.10
2023-04-30T12:59:32.336Z,3.10
2023-04-30T13:02:08.293Z,2.70
2023-04-30T13:04:37.697Z,2.40
2023-04-30T13:07:06.067Z,3.23
2023-04-30T13:09:34.923Z,3.83
2023-04-30T13:12:02.970Z,3.27
2023-04-30T13:14:31.051Z,3.00
2023-04-30T13:16:58.984Z,3.20
2023-04-30T13:19:27.161Z,3.53
2023-04-30T13:21:56.431Z,3.50
2023-04-30T13:24:24.610Z,2.60
2023-04-30T13:26:52.702Z,2.67
2023-04-30T13:29:20.760Z,2.50
2023-04-30T13:31:49.099Z,2.40
2023-04-30T13:34:17.394Z,3.00
2023-04-30T13:36:46.644Z,3.00
2023-04-30T13:39:15.845Z,3.00
2023-04-30T13:41:43.824Z,2.70
2023-04-30T13:44:12.528Z,2.97
2023-04-30T13:46:40.532Z,3.03
2023-04-30T13:49:08.443Z,3.00
2023-04-30T13:51:36.353Z,3.10
2023-04-30T13:54:04.233Z,3.10
2023-04-30T13:56:33.596Z,3.20
2023-04-30T13:59:01.588Z,2.60
2023-04-30T14:01:29.564Z,2.50
2023-04-30T14:03:57.651Z,2.80
2023-04-30T14:06:25.670Z,2.67
2023-04-30T14:08:53.748Z,2.80
2023-04-30T14:11:22.310Z,2.50
2023-04-30T14:13:51.552Z,2.30
2023-04-30T14:16:20.815Z,2.70
2023-04-30T14:18:48.939Z,2.10
2023-04-30T14:21:16.780Z,2.50
2023-04-30T14:23:46.471Z,2.40
2023-04-30T14:26:14.660Z,2.70
2023-04-30T14:28:42.661Z,2.53
2023-04-30T14:31:11.878Z,2.50
2023-04-30T14:33:39.874Z,2.63
2023-04-30T14:36:08.758Z,2.40
2023-04-30T14:38:36.748Z,2.43
2023-04-30T14:41:04.715Z,2.70
2023-04-30T14:43:32.655Z,2.73
2023-04-30T14:46:00.616Z,2.60
2023-04-30T14:48:29.845Z,2.67
2023-04-30T14:50:57.864Z,2.30
2023-04-30T14:53:25.694Z,2.80
2023-04-30T14:55:53.817Z,2.50
2023-04-30T14:58:22.212Z,2.50
2023-04-30T15:00:51.282Z,2.83
2023-04-30T15:03:19.288Z,2.27
2023-04-30T15:05:49.859Z,2.30
2023-04-30T15:08:17.738Z,2.60
2023-04-30T15:10:45.864Z,2.00
2023-04-30T15:13:14.225Z,2.20
2023-04-30T15:15:42.979Z,1.83
2023-04-30T15:18:11.135Z,2.60
2023-04-30T15:20:39.064Z,3.00
2023-04-30T15:23:08.308Z,2.50
2023-04-30T15:25:36.247Z,2.83
2023-04-30T15:28:04.238Z,2.60
2023-04-30T15:30:32.134Z,2.83
2023-04-30T15:33:00.050Z,3.00
2023-04-30T15:35:28.489Z,3.20
2023-04-30T15:37:56.329Z,3.00
2023-04-30T15:40:25.956Z,4.30
2023-04-30T15:42:53.901Z,2.80
2023-04-30T15:45:21.752Z,2.73
2023-04-30T15:47:49.752Z,2.90
2023-04-30T15:50:17.824Z,2.90
2023-04-30T15:52:45.919Z,2.87
2023-04-30T15:55:13.772Z,2.50
2023-04-30T15:57:43.091Z,2.20
2023-04-30T16:00:14.417Z,2.10
2023-04-30T16:02:42.465Z,1.83
2023-04-30T16:05:11.693Z,2.40
2023-04-30T16:07:41.343Z,2.57
2023-04-30T16:10:11.869Z,2.40
2023-04-30T16:12:39.832Z,2.70
2023-04-30T16:15:11.008Z,2.70
2023-04-30T16:17:39.188Z,2.30
2023-04-30T16:20:08.550Z,2.30
2023-04-30T16:22:37.264Z,2.47
2023-04-30T16:25:07.636Z,2.53
2023-04-30T16:27:37.364Z,2.53
2023-04-30T16:30:07.324Z,2.63
2023-04-30T16:32:36.873Z,2.63
2023-04-30T16:35:06.061Z,2.50
2023-04-30T16:37:33.920Z,2.43
2023-04-30T16:40:01.763Z,2.60
2023-04-30T16:42:30.124Z,2.43
2023-04-30T16:44:58.097Z,2.43
2023-04-30T16:47:26.004Z,2.53
2023-04-30T16:49:56.296Z,2.40
2023-04-30T16:52:24.465Z,2.10
2023-04-30T16:54:52.360Z,2.20
2023-04-30T16:57:21.053Z,2.17
2023-04-30T16:59:48.965Z,2.27
2023-04-30T17:02:16.872Z,1.80
2023-04-30T17:04:44.999Z,1.97
2023-04-30T17:07:14.505Z,1.70
2023-04-30T17:09:42.475Z,2.20
2023-04-30T17:12:10.495Z,2.10
2023-04-30T17:14:38.653Z,1.90
2023-04-30T17:17:06.486Z,2.30
2023-04-30T17:19:34.543Z,2.20
2023-04-30T17:22:02.672Z,2.00
2023-04-30T17:24:31.941Z,2.27
2023-04-30T17:27:00.964Z,2.07
2023-04-30T17:29:28.811Z,2.13
2023-04-30T17:31:56.759Z,1.77
2023-04-30T17:34:25.051Z,2.10
2023-04-30T17:36:52.979Z,2.10
2023-04-30T17:39:20.915Z,1.80
2023-04-30T17:41:50.380Z,1.80
2023-04-30T17:44:19.349Z,2.00
2023-04-30T17:46:47.420Z,1.87
2023-04-30T17:49:15.434Z,2.20
2023-04-30T17:51:43.585Z,2.00
2023-04-30T17:54:11.536Z,2.27
2023-04-30T17:56:40.439Z,2.50
2023-04-30T17:59:09.678Z,1.80
2023-04-30T18:01:38.014Z,2.10
2023-04-30T18:04:09.195Z,1.50
2023-04-30T18:06:37.200Z,1.97
2023-04-30T18:09:05.106Z,2.23
2023-04-30T18:11:33.584Z,2.00
2023-04-30T18:14:01.833Z,1.77
2023-04-30T18:16:31.096Z,1.70
2023-04-30T18:18:58.956Z,2.67
2023-04-30T18:21:27.080Z,1.90
2023-04-30T18:23:55.244Z,1.57
2023-04-30T18:26:24.168Z,1.80
2023-04-30T18:28:52.830Z,1.67
2023-04-30T18:31:20.751Z,1.80
2023-04-30T18:33:50.167Z,1.83
2023-04-30T18:36:18.432Z,1.87
2023-04-30T18:38:46.510Z,2.00
2023-04-30T18:41:14.484Z,2.60
2023-04-30T18:43:43.175Z,2.73
2023-04-30T18:46:11.100Z,2.93
2023-04-30T18:48:39.122Z,2.70
2023-04-30T18:51:08.367Z,2.67
2023-04-30T18:53:36.811Z,2.40
2023-04-30T18:56:04.837Z,3.30
2023-04-30T18:58:32.708Z,2.10
2023-04-30T19:01:00.578Z,1.80
2023-04-30T19:03:28.883Z,1.90
2023-04-30T19:05:57.626Z,1.60
2023-04-30T19:08:27.257Z,1.80
2023-04-30T19:10:55.866Z,1.73
2023-04-30T19:13:24.056Z,1.60
2023-04-30T19:15:53.595Z,1.77
2023-04-30T19:18:24.278Z,1.83
2023-04-30T19:20:57.750Z,1.70
2023-04-30T19:23:30.133Z,1.47
2023-04-30T19:25:58.404Z,1.90
2023-04-30T19:28:26.765Z,1.90
2023-04-30T19:30:55.173Z,1.50
2023-04-30T19:33:23.361Z,1.90
2023-04-30T19:35:53.218Z,1.60
2023-04-30T19:38:21.714Z,1.53
2023-04-30T19:40:53.024Z,2.10
2023-04-30T19:43:22.274Z,1.87
2023-04-30T19:45:53.211Z,1.70
2023-04-30T19:48:22.035Z,2.10
2023-04-30T19:50:51.371Z,2.00
2023-04-30T19:53:19.338Z,1.83
2023-04-30T19:55:47.200Z,1.73
2023-04-30T19:58:16.449Z,1.90
2023-04-30T20:00:46.162Z,1.40
2023-04-30T20:03:15.507Z,1.60
2023-04-30T20:05:43.732Z,1.53
2023-04-30T20:08:11.681Z,1.80
2023-04-30T20:10:40.905Z,1.83
2023-04-30T20:13:10.375Z,1.80
2023-04-30T20:15:39.660Z,1.50
2023-04-30T20:18:07.571Z,1.60
2023-04-30T20:20:36.059Z,1.60
2023-04-30T20:23:13.823Z,1.43
2023-04-30T20:25:42.827Z,1.60
2023-04-30T20:28:10.758Z,1.60
2023-04-30T20:30:42.114Z,1.60
2023-04-30T20:33:10.159Z,1.60
2023-04-30T20:35:40.425Z,1.50
2023-04-30T20:38:08.666Z,1.60
2023-04-30T20:40:39.927Z,1.67
2023-04-30T20:43:08.328Z,1.90
2023-04-30T20:45:36.535Z,1.47
2023-04-30T20:48:06.788Z,1.80
2023-04-30T20:50:34.843Z,1.80
2023-04-30T20:53:02.898Z,1.90
2023-04-30T20:55:31.061Z,1.40
2023-04-30T20:57:59.008Z,1.80
2023-04-30T21:00:27.697Z,1.57
2023-04-30T21:02:55.865Z,1.90
2023-04-30T21:05:26.750Z,1.80
2023-04-30T21:07:54.611Z,1.80
2023-04-30T21:10:23.007Z,1.80
2023-04-30T21:12:50.865Z,1.77
2023-04-30T21:15:18.911Z,1.80
2023-04-30T21:17:48.122Z,1.77
2023-04-30T21:20:16.354Z,1.60
2023-04-30T21:22:46.508Z,2.00
2023-04-30T21:25:14.588Z,2.20
2023-04-30T21:27:42.651Z,1.70
2023-04-30T21:30:11.005Z,2.00
2023-04-30T21:32:39.296Z,1.80
2023-04-30T21:35:08.055Z,1.90
2023-04-30T21:37:36.181Z,1.90
2023-04-30T21:40:06.376Z,2.10
2023-04-30T21:42:34.758Z,1.80
2023-04-30T21:45:02.898Z,2.00
2023-04-30T21:47:31.597Z,2.23
2023-04-30T21:49:59.611Z,1.63
2023-04-30T21:52:27.528Z,2.13
2023-04-30T21:54:55.715Z,2.00
2023-04-30T21:57:25.045Z,1.90
2023-04-30T21:59:52.982Z,1.80
2023-04-30T22:02:24.333Z,2.20
2023-04-30T22:04:53.261Z,2.30
2023-04-30T22:07:21.339Z,2.00
2023-04-30T22:09:49.197Z,2.23
2023-04-30T22:12:19.130Z,2.13
2023-04-30T22:14:50.097Z,2.00
2023-04-30T22:17:18.055Z,2.17
2023-04-30T22:19:45.954Z,2.23
2023-04-30T22:22:13.849Z,2.23
2023-04-30T22:24:41.739Z,2.50
2023-04-30T22:27:09.696Z,2.30
2023-04-30T22:29:37.539Z,2.30
2023-04-30T22:32:07.254Z,2.23
2023-04-30T22:34:38.385Z,1.80
2023-04-30T22:37:06.638Z,2.23
2023-04-30T22:39:34.550Z,2.40
2023-04-30T22:42:02.673Z,1.87
2023-04-30T22:44:30.987Z,2.47
2023-04-30T22:46:59.103Z,1.93
2023-04-30T22:49:31.548Z,2.20
2023-04-30T22:52:01.175Z,2.30
2023-04-30T22:54:29.498Z,2.10
2023-04-30T22:56:58.192Z,2.50
2023-04-30T22:59:26.209Z,2.33
2023-04-30T23:01:54.248Z,2.10
2023-04-30T23:04:22.505Z,2.10
2023-04-30T23:06:51.825Z,2.13
2023-04-30T23:09:19.886Z,1.90
2023-04-30T23:11:48.265Z,2.10
2023-04-30T23:14:16.305Z,2.30
2023-04-30T23:16:44.245Z,2.07
2023-04-30T23:19:12.298Z,2.43
2023-04-30T23:21:40.255Z,2.30
2023-04-30T23:24:09.464Z,2.10
2023-04-30T23:26:37.363Z,2.30
2023-04-30T23:29:05.303Z,2.00
2023-04-30T23:31:33.229Z,2.23
2023-04-30T23:34:01.258Z,2.20
2023-04-30T23:36:29.184Z,2.47
2023-04-30T23:38:57.105Z,2.27
2023-04-30T23:41:26.886Z,2.40
2023-04-30T23:43:54.858Z,2.10
2023-04-30T23:46:23.202Z,2.13
2023-04-30T23:48:51.827Z,2.50
2023-04-30T23:51:21.415Z,2.30
2023-04-30T23:53:49.430Z,2.50
2023-04-30T23:56:17.316Z,2.50
2023-04-30T23:58:46.531Z,2.43
